sensor_id;sensor_type;location;lat;lon;timestamp;temperature;humidity
10864;DHT22;5485;37.558;126.950;2023-04-24T00:00:43;21.70;1.00
10864;DHT22;5485;37.558;126.950;2023-04-24T00:03:13;22.00;1.00
10864;DHT22;5485;37.558;126.950;2023-04-24T00:05:40;21.90;1.00
10864;DHT22;5485;37.558;126.950;2023-04-24T00:08:07;21.60;1.00
10864;DHT22;5485;37.558;126.950;2023-04-24T00:10:34;21.70;1.00
10864;DHT22;5485;37.558;126.950;2023-04-24T00:13:01;22.00;1.00
10864;DHT22;5485;37.558;126.950;2023-04-24T00:15:28;22.00;1.00
10864;DHT22;5485;37.558;126.950;2023-04-24T00:17:55;22.00;1.00
10864;DHT22;5485;37.558;126.950;2023-04-24T00:20:22;22.60;1.00
10864;DHT22;5485;37.558;126.950;2023-04-24T00:22:49;23.00;1.00
10864;DHT22;5485;37.558;126.950;2023-04-24T00:25:16;22.60;1.00
10864;DHT22;5485;37.558;126.950;2023-04-24T00:27:43;22.80;1.00
10864;DHT22;5485;37.558;126.950;2023-04-24T00:30:10;22.80;1.00
10864;DHT22;5485;37.558;126.950;2023-04-24T00:32:37;22.80;1.00
10864;DHT22;5485;37.558;126.950;2023-04-24T00:35:07;22.70;1.00
10864;DHT22;5485;37.558;126.950;2023-04-24T00:37:34;23.30;1.00
10864;DHT22;5485;37.558;126.950;2023-04-24T00:40:02;23.40;1.00
10864;DHT22;5485;37.558;126.950;2023-04-24T00:42:29;23.60;1.00
10864;DHT22;5485;37.558;126.950;2023-04-24T00:44:57;23.50;1.00
10864;DHT22;5485;37.558;126.950;2023-04-24T00:47:24;23.00;1.00
10864;DHT22;5485;37.558;126.950;2023-04-24T00:49:52;22.90;1.00
10864;DHT22;5485;37.558;126.950;2023-04-24T00:52:21;23.00;1.00
10864;DHT22;5485;37.558;126.950;2023-04-24T00:54:54;23.30;1.00
10864;DHT22;5485;37.558;126.950;2023-04-24T00:57:21;23.40;1.00
10864;DHT22;5485;37.558;126.950;2023-04-24T00:59:50;23.20;1.00
10864;DHT22;5485;37.558;126.950;2023-04-24T01:02:18;23.50;1.00
10864;DHT22;5485;37.558;126.950;2023-04-24T01:04:46;23.90;1.00
10864;DHT22;5485;37.558;126.950;2023-04-24T01:07:13;23.80;1.00
10864;DHT22;5485;37.558;126.950;2023-04-24T01:09:40;24.00;1.00
10864;DHT22;5485;37.558;126.950;2023-04-24T01:12:10;24.00;1.00
10864;DHT22;5485;37.558;126.950;2023-04-24T01:14:40;23.20;1.00
10864;DHT22;5485;37.558;126.950;2023-04-24T01:17:07;22.70;1.00
10864;DHT22;5485;37.558;126.950;2023-04-24T01:19:35;22.40;1.00
10864;DHT22;5485;37.558;126.950;2023-04-24T01:24:34;22.40;1.00
10864;DHT22;5485;37.558;126.950;2023-04-24T01:27:04;22.30;1.00
10864;DHT22;5485;37.558;126.950;2023-04-24T01:29:30;22.40;1.00
10864;DHT22;5485;37.558;126.950;2023-04-24T01:31:58;22.30;1.00
10864;DHT22;5485;37.558;126.950;2023-04-24T01:34:25;22.10;1.00
10864;DHT22;5485;37.558;126.950;2023-04-24T01:36:52;22.20;1.00
10864;DHT22;5485;37.558;126.950;2023-04-24T01:39:19;22.40;1.00
10864;DHT22;5485;37.558;126.950;2023-04-24T01:41:46;22.50;1.00
10864;DHT22;5485;37.558;126.950;2023-04-24T01:44:14;22.30;1.00
10864;DHT22;5485;37.558;126.950;2023-04-24T01:46:43;22.70;1.00
10864;DHT22;5485;37.558;126.950;2023-04-24T01:49:11;22.80;1.00
10864;DHT22;5485;37.558;126.950;2023-04-24T01:51:40;23.10;1.00
10864;DHT22;5485;37.558;126.950;2023-04-24T01:54:07;23.10;1.00
10864;DHT22;5485;37.558;126.950;2023-04-24T01:56:34;22.80;1.00
10864;DHT22;5485;37.558;126.950;2023-04-24T01:59:04;22.30;1.00
10864;DHT22;5485;37.558;126.950;2023-04-24T02:01:38;22.10;1.00
10864;DHT22;5485;37.558;126.950;2023-04-24T02:04:06;22.30;1.00
10864;DHT22;5485;37.558;126.950;2023-04-24T02:06:34;22.80;1.00
10864;DHT22;5485;37.558;126.950;2023-04-24T02:09:01;23.30;1.00
10864;DHT22;5485;37.558;126.950;2023-04-24T02:11:29;23.20;1.00
10864;DHT22;5485;37.558;126.950;2023-04-24T02:13:57;23.20;1.00
10864;DHT22;5485;37.558;126.950;2023-04-24T02:16:24;23.00;1.00
10864;DHT22;5485;37.558;126.950;2023-04-24T02:18:51;22.60;1.00
10864;DHT22;5485;37.558;126.950;2023-04-24T02:21:19;22.40;1.00
10864;DHT22;5485;37.558;126.950;2023-04-24T02:23:46;22.20;1.00
10864;DHT22;5485;37.558;126.950;2023-04-24T02:26:13;22.00;1.00
10864;DHT22;5485;37.558;126.950;2023-04-24T02:28:40;22.20;1.00
10864;DHT22;5485;37.558;126.950;2023-04-24T02:31:07;22.20;1.00
10864;DHT22;5485;37.558;126.950;2023-04-24T02:33:34;22.30;1.00
10864;DHT22;5485;37.558;126.950;2023-04-24T02:36:02;22.00;1.00
10864;DHT22;5485;37.558;126.950;2023-04-24T02:38:30;22.20;1.00
10864;DHT22;5485;37.558;126.950;2023-04-24T02:40:57;22.30;1.00
10864;DHT22;5485;37.558;126.950;2023-04-24T02:43:25;22.50;1.00
10864;DHT22;5485;37.558;126.950;2023-04-24T02:45:53;22.40;1.00
10864;DHT22;5485;37.558;126.950;2023-04-24T02:48:20;22.20;1.00
10864;DHT22;5485;37.558;126.950;2023-04-24T02:50:47;22.20;1.00
10864;DHT22;5485;37.558;126.950;2023-04-24T02:53:14;22.00;1.00
10864;DHT22;5485;37.558;126.950;2023-04-24T02:55:41;21.70;1.00
10864;DHT22;5485;37.558;126.950;2023-04-24T02:58:08;21.70;1.00
10864;DHT22;5485;37.558;126.950;2023-04-24T03:00:36;21.80;1.00
10864;DHT22;5485;37.558;126.950;2023-04-24T03:03:05;22.10;1.00
10864;DHT22;5485;37.558;126.950;2023-04-24T03:05:35;21.90;1.00
10864;DHT22;5485;37.558;126.950;2023-04-24T03:08:02;21.70;1.00
10864;DHT22;5485;37.558;126.950;2023-04-24T03:10:29;21.90;1.00
10864;DHT22;5485;37.558;126.950;2023-04-24T03:12:56;22.00;1.00
10864;DHT22;5485;37.558;126.950;2023-04-24T03:15:27;22.20;1.00
10864;DHT22;5485;37.558;126.950;2023-04-24T03:17:54;21.90;1.00
10864;DHT22;5485;37.558;126.950;2023-04-24T03:20:23;21.70;1.00
10864;DHT22;5485;37.558;126.950;2023-04-24T03:22:50;21.70;1.00
10864;DHT22;5485;37.558;126.950;2023-04-24T03:25:17;21.70;1.00
10864;DHT22;5485;37.558;126.950;2023-04-24T03:27:43;21.80;1.00
10864;DHT22;5485;37.558;126.950;2023-04-24T03:30:11;21.90;1.00
10864;DHT22;5485;37.558;126.950;2023-04-24T03:32:39;22.10;1.00
10864;DHT22;5485;37.558;126.950;2023-04-24T03:35:09;22.00;1.00
10864;DHT22;5485;37.558;126.950;2023-04-24T03:37:36;22.10;1.00
10864;DHT22;5485;37.558;126.950;2023-04-24T03:40:06;21.80;1.00
10864;DHT22;5485;37.558;126.950;2023-04-24T03:42:33;21.60;1.00
10864;DHT22;5485;37.558;126.950;2023-04-24T03:45:00;21.40;1.00
10864;DHT22;5485;37.558;126.950;2023-04-24T03:47:27;21.40;1.00
10864;DHT22;5485;37.558;126.950;2023-04-24T03:49:53;21.50;1.00
10864;DHT22;5485;37.558;126.950;2023-04-24T03:52:21;21.60;1.00
10864;DHT22;5485;37.558;126.950;2023-04-24T03:54:48;21.60;1.00
10864;DHT22;5485;37.558;126.950;2023-04-24T03:57:15;21.60;1.00
10864;DHT22;5485;37.558;126.950;2023-04-24T03:59:42;21.90;1.00
10864;DHT22;5485;37.558;126.950;2023-04-24T04:02:09;22.20;1.00
10864;DHT22;5485;37.558;126.950;2023-04-24T04:04:36;22.40;1.00
10864;DHT22;5485;37.558;126.950;2023-04-24T04:07:03;22.60;1.00
10864;DHT22;5485;37.558;126.950;2023-04-24T04:09:34;22.60;1.00
10864;DHT22;5485;37.558;126.950;2023-04-24T04:12:01;21.90;1.00
10864;DHT22;5485;37.558;126.950;2023-04-24T04:14:29;21.80;1.00
10864;DHT22;5485;37.558;126.950;2023-04-24T04:16:56;21.90;1.00
10864;DHT22;5485;37.558;126.950;2023-04-24T04:19:23;22.10;1.00
10864;DHT22;5485;37.558;126.950;2023-04-24T04:21:49;22.20;1.00
10864;DHT22;5485;37.558;126.950;2023-04-24T04:24:19;22.10;1.00
10864;DHT22;5485;37.558;126.950;2023-04-24T04:26:50;22.00;1.00
10864;DHT22;5485;37.558;126.950;2023-04-24T04:29:18;22.00;1.00
10864;DHT22;5485;37.558;126.950;2023-04-24T04:31:45;22.20;1.00
10864;DHT22;5485;37.558;126.950;2023-04-24T04:34:12;22.30;1.00
10864;DHT22;5485;37.558;126.950;2023-04-24T04:36:41;22.40;1.00
10864;DHT22;5485;37.558;126.950;2023-04-24T04:39:09;22.30;1.00
10864;DHT22;5485;37.558;126.950;2023-04-24T04:41:35;22.20;1.00
10864;DHT22;5485;37.558;126.950;2023-04-24T04:44:05;22.30;1.00
10864;DHT22;5485;37.558;126.950;2023-04-24T04:46:34;22.20;1.00
10864;DHT22;5485;37.558;126.950;2023-04-24T04:49:03;22.10;1.00
10864;DHT22;5485;37.558;126.950;2023-04-24T04:51:30;22.10;1.00
10864;DHT22;5485;37.558;126.950;2023-04-24T04:53:57;22.00;1.00
10864;DHT22;5485;37.558;126.950;2023-04-24T04:56:24;22.20;1.00
10864;DHT22;5485;37.558;126.950;2023-04-24T04:58:51;22.00;1.00
10864;DHT22;5485;37.558;126.950;2023-04-24T05:01:18;21.90;1.00
10864;DHT22;5485;37.558;126.950;2023-04-24T05:03:44;21.80;1.00
10864;DHT22;5485;37.558;126.950;2023-04-24T05:06:11;21.70;1.00
10864;DHT22;5485;37.558;126.950;2023-04-24T05:08:38;21.80;1.00
10864;DHT22;5485;37.558;126.950;2023-04-24T05:11:06;22.10;1.00
10864;DHT22;5485;37.558;126.950;2023-04-24T05:13:32;22.30;1.00
10864;DHT22;5485;37.558;126.950;2023-04-24T05:15:59;22.50;1.00
10864;DHT22;5485;37.558;126.950;2023-04-24T05:18:27;22.60;1.00
10864;DHT22;5485;37.558;126.950;2023-04-24T05:20:54;22.30;1.00
10864;DHT22;5485;37.558;126.950;2023-04-24T05:23:21;21.80;1.00
10864;DHT22;5485;37.558;126.950;2023-04-24T05:25:49;21.60;1.00
10864;DHT22;5485;37.558;126.950;2023-04-24T05:28:18;21.70;1.00
10864;DHT22;5485;37.558;126.950;2023-04-24T05:30:46;22.00;1.00
10864;DHT22;5485;37.558;126.950;2023-04-24T05:33:12;22.10;1.00
10864;DHT22;5485;37.558;126.950;2023-04-24T05:35:45;22.20;1.00
10864;DHT22;5485;37.558;126.950;2023-04-24T05:38:13;22.40;1.00
10864;DHT22;5485;37.558;126.950;2023-04-24T05:40:43;22.50;1.00
10864;DHT22;5485;37.558;126.950;2023-04-24T05:43:09;22.70;1.00
10864;DHT22;5485;37.558;126.950;2023-04-24T05:45:37;23.00;1.00
10864;DHT22;5485;37.558;126.950;2023-04-24T05:48:05;23.10;1.00
10864;DHT22;5485;37.558;126.950;2023-04-24T05:50:32;23.00;1.00
10864;DHT22;5485;37.558;126.950;2023-04-24T05:52:59;22.70;1.00
10864;DHT22;5485;37.558;126.950;2023-04-24T05:55:27;22.50;1.00
10864;DHT22;5485;37.558;126.950;2023-04-24T05:57:55;22.30;1.00
10864;DHT22;5485;37.558;126.950;2023-04-24T06:00:23;22.30;1.00
10864;DHT22;5485;37.558;126.950;2023-04-24T06:02:50;22.10;1.00
10864;DHT22;5485;37.558;126.950;2023-04-24T06:05:19;21.80;1.00
10864;DHT22;5485;37.558;126.950;2023-04-24T06:07:46;21.70;1.00
10864;DHT22;5485;37.558;126.950;2023-04-24T06:10:13;21.80;1.00
10864;DHT22;5485;37.558;126.950;2023-04-24T06:12:40;21.70;1.00
10864;DHT22;5485;37.558;126.950;2023-04-24T06:15:07;21.80;1.00
10864;DHT22;5485;37.558;126.950;2023-04-24T06:17:37;21.70;1.00
10864;DHT22;5485;37.558;126.950;2023-04-24T06:20:06;21.80;1.00
10864;DHT22;5485;37.558;126.950;2023-04-24T06:22:34;21.80;1.00
10864;DHT22;5485;37.558;126.950;2023-04-24T06:25:04;21.80;1.00
10864;DHT22;5485;37.558;126.950;2023-04-24T06:27:31;22.00;1.00
10864;DHT22;5485;37.558;126.950;2023-04-24T06:30:01;22.20;1.00
10864;DHT22;5485;37.558;126.950;2023-04-24T06:32:28;22.20;1.00
10864;DHT22;5485;37.558;126.950;2023-04-24T06:34:59;22.30;1.00
10864;DHT22;5485;37.558;126.950;2023-04-24T06:37:26;22.20;1.00
10864;DHT22;5485;37.558;126.950;2023-04-24T06:39:53;22.20;1.00
10864;DHT22;5485;37.558;126.950;2023-04-24T06:42:20;22.10;1.00
10864;DHT22;5485;37.558;126.950;2023-04-24T06:44:48;22.20;1.00
10864;DHT22;5485;37.558;126.950;2023-04-24T06:47:18;22.00;1.00
10864;DHT22;5485;37.558;126.950;2023-04-24T06:49:45;22.30;1.00
10864;DHT22;5485;37.558;126.950;2023-04-24T06:52:12;22.50;1.00
10864;DHT22;5485;37.558;126.950;2023-04-24T06:54:42;22.80;1.00
10864;DHT22;5485;37.558;126.950;2023-04-24T06:57:08;22.90;1.00
10864;DHT22;5485;37.558;126.950;2023-04-24T06:59:37;22.50;1.00
10864;DHT22;5485;37.558;126.950;2023-04-24T07:02:04;22.30;1.00
10864;DHT22;5485;37.558;126.950;2023-04-24T07:04:32;22.00;1.00
10864;DHT22;5485;37.558;126.950;2023-04-24T07:07:02;22.00;1.00
10864;DHT22;5485;37.558;126.950;2023-04-24T07:09:30;21.70;1.00
10864;DHT22;5485;37.558;126.950;2023-04-24T07:11:58;21.70;1.00
10864;DHT22;5485;37.558;126.950;2023-04-24T07:14:24;21.60;1.00
10864;DHT22;5485;37.558;126.950;2023-04-24T07:16:51;21.60;1.00
10864;DHT22;5485;37.558;126.950;2023-04-24T07:19:18;21.60;1.00
10864;DHT22;5485;37.558;126.950;2023-04-24T07:21:45;21.50;1.00
10864;DHT22;5485;37.558;126.950;2023-04-24T07:24:12;21.50;1.00
10864;DHT22;5485;37.558;126.950;2023-04-24T07:26:41;21.40;1.00
10864;DHT22;5485;37.558;126.950;2023-04-24T07:29:10;21.40;1.00
10864;DHT22;5485;37.558;126.950;2023-04-24T07:31:39;21.40;1.00
10864;DHT22;5485;37.558;126.950;2023-04-24T07:34:07;21.40;1.00
10864;DHT22;5485;37.558;126.950;2023-04-24T07:36:34;21.50;1.00
10864;DHT22;5485;37.558;126.950;2023-04-24T07:39:01;21.70;1.00
10864;DHT22;5485;37.558;126.950;2023-04-24T07:41:28;21.70;1.00
10864;DHT22;5485;37.558;126.950;2023-04-24T07:43:55;21.70;1.00
10864;DHT22;5485;37.558;126.950;2023-04-24T07:46:24;21.50;1.00
10864;DHT22;5485;37.558;126.950;2023-04-24T07:48:52;21.00;1.00
10864;DHT22;5485;37.558;126.950;2023-04-24T07:51:19;21.10;1.00
10864;DHT22;5485;37.558;126.950;2023-04-24T07:53:46;21.00;1.00
10864;DHT22;5485;37.558;126.950;2023-04-24T07:56:13;20.80;1.00
10864;DHT22;5485;37.558;126.950;2023-04-24T07:58:40;20.60;1.00
10864;DHT22;5485;37.558;126.950;2023-04-24T08:01:07;20.70;1.00
10864;DHT22;5485;37.558;126.950;2023-04-24T08:03:34;20.70;1.00
10864;DHT22;5485;37.558;126.950;2023-04-24T08:06:01;20.70;1.00
10864;DHT22;5485;37.558;126.950;2023-04-24T08:08:27;20.40;1.00
10864;DHT22;5485;37.558;126.950;2023-04-24T08:10:54;20.30;1.00
10864;DHT22;5485;37.558;126.950;2023-04-24T08:13:22;20.10;1.00
10864;DHT22;5485;37.558;126.950;2023-04-24T08:15:49;19.90;1.00
10864;DHT22;5485;37.558;126.950;2023-04-24T08:18:16;19.70;1.00
10864;DHT22;5485;37.558;126.950;2023-04-24T08:20:43;19.50;1.00
10864;DHT22;5485;37.558;126.950;2023-04-24T08:23:11;19.40;1.00
10864;DHT22;5485;37.558;126.950;2023-04-24T08:25:38;19.50;1.00
10864;DHT22;5485;37.558;126.950;2023-04-24T08:28:06;19.50;1.00
10864;DHT22;5485;37.558;126.950;2023-04-24T08:30:33;19.50;1.00
10864;DHT22;5485;37.558;126.950;2023-04-24T08:33:00;19.40;1.00
10864;DHT22;5485;37.558;126.950;2023-04-24T08:35:29;19.40;1.00
10864;DHT22;5485;37.558;126.950;2023-04-24T08:37:58;19.60;1.00
10864;DHT22;5485;37.558;126.950;2023-04-24T08:40:28;19.60;1.00
10864;DHT22;5485;37.558;126.950;2023-04-24T08:42:56;19.50;1.00
10864;DHT22;5485;37.558;126.950;2023-04-24T08:45:23;19.40;1.00
10864;DHT22;5485;37.558;126.950;2023-04-24T08:47:54;19.30;1.00
10864;DHT22;5485;37.558;126.950;2023-04-24T08:50:24;19.20;1.00
10864;DHT22;5485;37.558;126.950;2023-04-24T08:52:52;19.00;1.00
10864;DHT22;5485;37.558;126.950;2023-04-24T08:55:24;18.70;1.00
10864;DHT22;5485;37.558;126.950;2023-04-24T08:57:52;18.60;1.00
10864;DHT22;5485;37.558;126.950;2023-04-24T09:00:22;18.60;1.00
10864;DHT22;5485;37.558;126.950;2023-04-24T09:02:54;18.60;1.00
10864;DHT22;5485;37.558;126.950;2023-04-24T09:05:22;18.60;1.00
10864;DHT22;5485;37.558;126.950;2023-04-24T09:07:56;18.60;1.00
10864;DHT22;5485;37.558;126.950;2023-04-24T09:10:26;18.50;1.00
10864;DHT22;5485;37.558;126.950;2023-04-24T09:12:57;18.60;1.00
10864;DHT22;5485;37.558;126.950;2023-04-24T09:15:29;18.50;1.00
10864;DHT22;5485;37.558;126.950;2023-04-24T09:17:58;18.50;1.00
10864;DHT22;5485;37.558;126.950;2023-04-24T09:20:25;18.30;1.00
10864;DHT22;5485;37.558;126.950;2023-04-24T09:22:54;18.20;1.00
10864;DHT22;5485;37.558;126.950;2023-04-24T09:25:21;18.20;1.00
10864;DHT22;5485;37.558;126.950;2023-04-24T09:27:48;18.10;1.00
10864;DHT22;5485;37.558;126.950;2023-04-24T09:30:21;18.10;1.00
10864;DHT22;5485;37.558;126.950;2023-04-24T09:32:49;18.10;1.00
10864;DHT22;5485;37.558;126.950;2023-04-24T09:35:25;18.00;1.00
10864;DHT22;5485;37.558;126.950;2023-04-24T09:37:52;17.90;1.00
10864;DHT22;5485;37.558;126.950;2023-04-24T09:40:21;17.70;1.00
10864;DHT22;5485;37.558;126.950;2023-04-24T09:42:55;17.60;1.00
10864;DHT22;5485;37.558;126.950;2023-04-24T09:45:35;17.50;1.00
10864;DHT22;5485;37.558;126.950;2023-04-24T09:48:03;17.40;1.00
10864;DHT22;5485;37.558;126.950;2023-04-24T09:50:31;17.30;1.00
10864;DHT22;5485;37.558;126.950;2023-04-24T09:53:05;17.20;1.00
10864;DHT22;5485;37.558;126.950;2023-04-24T09:55:44;17.10;1.00
10864;DHT22;5485;37.558;126.950;2023-04-24T09:58:14;17.00;1.00
10864;DHT22;5485;37.558;126.950;2023-04-24T10:00:41;16.80;1.00
10864;DHT22;5485;37.558;126.950;2023-04-24T10:03:08;16.60;1.00
10864;DHT22;5485;37.558;126.950;2023-04-24T10:05:37;16.50;1.00
10864;DHT22;5485;37.558;126.950;2023-04-24T10:08:11;16.40;1.00
10864;DHT22;5485;37.558;126.950;2023-04-24T10:10:47;16.20;1.00
10864;DHT22;5485;37.558;126.950;2023-04-24T10:13:14;16.10;1.00
10864;DHT22;5485;37.558;126.950;2023-04-24T10:15:42;16.00;1.00
10864;DHT22;5485;37.558;126.950;2023-04-24T10:18:10;16.00;1.00
10864;DHT22;5485;37.558;126.950;2023-04-24T10:20:39;15.90;1.00
10864;DHT22;5485;37.558;126.950;2023-04-24T10:23:06;15.80;1.00
10864;DHT22;5485;37.558;126.950;2023-04-24T10:25:36;15.80;1.00
10864;DHT22;5485;37.558;126.950;2023-04-24T10:28:03;15.70;1.00
10864;DHT22;5485;37.558;126.950;2023-04-24T10:30:35;15.70;1.00
10864;DHT22;5485;37.558;126.950;2023-04-24T10:33:05;15.60;1.00
10864;DHT22;5485;37.558;126.950;2023-04-24T10:35:39;15.50;1.00
10864;DHT22;5485;37.558;126.950;2023-04-24T10:38:22;15.50;1.00
10864;DHT22;5485;37.558;126.950;2023-04-24T10:41:06;15.50;1.00
10864;DHT22;5485;37.558;126.950;2023-04-24T10:43:34;15.50;1.00
10864;DHT22;5485;37.558;126.950;2023-04-24T10:46:03;15.50;1.00
10864;DHT22;5485;37.558;126.950;2023-04-24T10:48:32;15.50;1.00
10864;DHT22;5485;37.558;126.950;2023-04-24T10:51:00;15.40;1.00
10864;DHT22;5485;37.558;126.950;2023-04-24T10:53:29;15.30;1.00
10864;DHT22;5485;37.558;126.950;2023-04-24T10:56:08;15.30;1.00
10864;DHT22;5485;37.558;126.950;2023-04-24T10:58:49;15.20;1.00
10864;DHT22;5485;37.558;126.950;2023-04-24T11:01:30;15.20;1.00
10864;DHT22;5485;37.558;126.950;2023-04-24T11:04:00;15.30;1.00
10864;DHT22;5485;37.558;126.950;2023-04-24T11:09:09;15.20;1.00
10864;DHT22;5485;37.558;126.950;2023-04-24T11:11:44;15.10;1.00
10864;DHT22;5485;37.558;126.950;2023-04-24T11:14:19;15.00;1.00
10864;DHT22;5485;37.558;126.950;2023-04-24T11:16:55;14.90;1.00
10864;DHT22;5485;37.558;126.950;2023-04-24T11:19:26;14.90;1.00
10864;DHT22;5485;37.558;126.950;2023-04-24T11:21:55;14.80;1.00
10864;DHT22;5485;37.558;126.950;2023-04-24T11:24:40;14.70;1.00
10864;DHT22;5485;37.558;126.950;2023-04-24T11:27:13;14.70;1.00
10864;DHT22;5485;37.558;126.950;2023-04-24T11:32:28;14.60;1.00
10864;DHT22;5485;37.558;126.950;2023-04-24T11:34:58;14.60;1.00
10864;DHT22;5485;37.558;126.950;2023-04-24T11:37:28;14.60;1.00
10864;DHT22;5485;37.558;126.950;2023-04-24T11:39:57;14.60;1.00
10864;DHT22;5485;37.558;126.950;2023-04-24T11:42:26;14.50;1.00
10864;DHT22;5485;37.558;126.950;2023-04-24T11:44:55;14.50;1.00
10864;DHT22;5485;37.558;126.950;2023-04-24T11:47:32;14.50;1.00
10864;DHT22;5485;37.558;126.950;2023-04-24T11:50:00;14.40;1.00
10864;DHT22;5485;37.558;126.950;2023-04-24T11:52:28;14.40;1.00
10864;DHT22;5485;37.558;126.950;2023-04-24T11:54:56;14.30;1.00
10864;DHT22;5485;37.558;126.950;2023-04-24T11:57:25;14.20;1.00
10864;DHT22;5485;37.558;126.950;2023-04-24T12:00:00;14.20;1.00
10864;DHT22;5485;37.558;126.950;2023-04-24T12:02:29;14.20;1.00
10864;DHT22;5485;37.558;126.950;2023-04-24T12:04:56;14.10;1.00
10864;DHT22;5485;37.558;126.950;2023-04-24T12:07:23;14.10;1.00
10864;DHT22;5485;37.558;126.950;2023-04-24T12:09:58;14.10;1.00
10864;DHT22;5485;37.558;126.950;2023-04-24T12:12:27;14.00;1.00
10864;DHT22;5485;37.558;126.950;2023-04-24T12:14:56;14.00;1.00
10864;DHT22;5485;37.558;126.950;2023-04-24T12:17:31;13.90;1.00
10864;DHT22;5485;37.558;126.950;2023-04-24T12:20:09;13.90;1.00
10864;DHT22;5485;37.558;126.950;2023-04-24T12:25:18;13.80;1.00
10864;DHT22;5485;37.558;126.950;2023-04-24T12:27:46;13.80;1.00
10864;DHT22;5485;37.558;126.950;2023-04-24T12:30:15;13.80;1.00
10864;DHT22;5485;37.558;126.950;2023-04-24T12:32:47;13.70;1.00
10864;DHT22;5485;37.558;126.950;2023-04-24T12:35:23;13.70;1.00
10864;DHT22;5485;37.558;126.950;2023-04-24T12:37:51;13.70;1.00
10864;DHT22;5485;37.558;126.950;2023-04-24T12:40:21;13.60;1.00
10864;DHT22;5485;37.558;126.950;2023-04-24T12:42:51;13.60;1.00
10864;DHT22;5485;37.558;126.950;2023-04-24T12:45:19;13.60;1.00
10864;DHT22;5485;37.558;126.950;2023-04-24T12:47:49;13.60;1.00
10864;DHT22;5485;37.558;126.950;2023-04-24T12:50:16;13.60;1.00
10864;DHT22;5485;37.558;126.950;2023-04-24T12:52:44;13.50;1.00
10864;DHT22;5485;37.558;126.950;2023-04-24T12:55:11;13.60;1.00
10864;DHT22;5485;37.558;126.950;2023-04-24T12:57:39;13.60;1.00
10864;DHT22;5485;37.558;126.950;2023-04-24T13:00:07;13.50;1.00
10864;DHT22;5485;37.558;126.950;2023-04-24T13:02:38;13.50;1.00
10864;DHT22;5485;37.558;126.950;2023-04-24T13:05:08;13.50;1.00
10864;DHT22;5485;37.558;126.950;2023-04-24T13:07:40;13.50;1.00
10864;DHT22;5485;37.558;126.950;2023-04-24T13:10:08;13.40;1.00
10864;DHT22;5485;37.558;126.950;2023-04-24T13:12:39;13.40;1.00
10864;DHT22;5485;37.558;126.950;2023-04-24T13:15:07;13.40;1.00
10864;DHT22;5485;37.558;126.950;2023-04-24T13:17:35;13.40;1.00
10864;DHT22;5485;37.558;126.950;2023-04-24T13:20:02;13.40;1.00
10864;DHT22;5485;37.558;126.950;2023-04-24T13:22:29;13.40;1.00
10864;DHT22;5485;37.558;126.950;2023-04-24T13:24:56;13.40;1.00
10864;DHT22;5485;37.558;126.950;2023-04-24T13:27:23;13.30;1.00
10864;DHT22;5485;37.558;126.950;2023-04-24T13:29:50;13.30;1.00
10864;DHT22;5485;37.558;126.950;2023-04-24T13:32:17;13.20;1.00
10864;DHT22;5485;37.558;126.950;2023-04-24T13:34:44;13.20;1.00
10864;DHT22;5485;37.558;126.950;2023-04-24T13:37:11;13.20;1.00
10864;DHT22;5485;37.558;126.950;2023-04-24T13:39:38;13.10;1.00
10864;DHT22;5485;37.558;126.950;2023-04-24T13:42:04;13.10;1.00
10864;DHT22;5485;37.558;126.950;2023-04-24T13:44:31;13.10;1.00
10864;DHT22;5485;37.558;126.950;2023-04-24T13:46:58;13.10;1.00
10864;DHT22;5485;37.558;126.950;2023-04-24T13:49:26;13.00;1.00
10864;DHT22;5485;37.558;126.950;2023-04-24T13:51:54;13.00;1.00
10864;DHT22;5485;37.558;126.950;2023-04-24T13:54:22;12.90;1.00
10864;DHT22;5485;37.558;126.950;2023-04-24T13:56:52;12.90;1.00
10864;DHT22;5485;37.558;126.950;2023-04-24T13:59:20;12.80;1.00
10864;DHT22;5485;37.558;126.950;2023-04-24T14:01:47;12.80;1.00
10864;DHT22;5485;37.558;126.950;2023-04-24T14:04:14;12.80;1.00
10864;DHT22;5485;37.558;126.950;2023-04-24T14:06:41;12.80;1.00
10864;DHT22;5485;37.558;126.950;2023-04-24T14:09:08;12.80;1.00
10864;DHT22;5485;37.558;126.950;2023-04-24T14:11:35;12.80;1.00
10864;DHT22;5485;37.558;126.950;2023-04-24T14:14:04;12.80;1.00
10864;DHT22;5485;37.558;126.950;2023-04-24T14:16:31;12.80;1.00
10864;DHT22;5485;37.558;126.950;2023-04-24T14:18:57;12.80;1.00
10864;DHT22;5485;37.558;126.950;2023-04-24T14:21:24;12.80;1.00
10864;DHT22;5485;37.558;126.950;2023-04-24T14:23:51;12.80;1.00
10864;DHT22;5485;37.558;126.950;2023-04-24T14:26:21;12.80;1.00
10864;DHT22;5485;37.558;126.950;2023-04-24T14:28:48;12.80;1.00
10864;DHT22;5485;37.558;126.950;2023-04-24T14:31:15;12.70;1.00
10864;DHT22;5485;37.558;126.950;2023-04-24T14:33:42;12.70;1.00
10864;DHT22;5485;37.558;126.950;2023-04-24T14:36:09;12.70;1.00
10864;DHT22;5485;37.558;126.950;2023-04-24T14:38:36;12.60;1.00
10864;DHT22;5485;37.558;126.950;2023-04-24T14:41:03;12.60;1.00
10864;DHT22;5485;37.558;126.950;2023-04-24T14:43:35;12.60;1.00
10864;DHT22;5485;37.558;126.950;2023-04-24T14:46:03;12.60;1.00
10864;DHT22;5485;37.558;126.950;2023-04-24T14:48:30;12.60;1.00
10864;DHT22;5485;37.558;126.950;2023-04-24T14:50:58;12.50;1.00
10864;DHT22;5485;37.558;126.950;2023-04-24T14:53:25;12.50;1.00
10864;DHT22;5485;37.558;126.950;2023-04-24T14:55:54;12.50;1.00
10864;DHT22;5485;37.558;126.950;2023-04-24T14:58:21;12.50;1.00
10864;DHT22;5485;37.558;126.950;2023-04-24T15:00:48;12.50;1.00
10864;DHT22;5485;37.558;126.950;2023-04-24T15:03:18;12.50;1.00
10864;DHT22;5485;37.558;126.950;2023-04-24T15:05:47;12.50;1.00
10864;DHT22;5485;37.558;126.950;2023-04-24T15:08:13;12.50;1.00
10864;DHT22;5485;37.558;126.950;2023-04-24T15:10:40;12.50;1.00
10864;DHT22;5485;37.558;126.950;2023-04-24T15:13:08;12.40;1.00
10864;DHT22;5485;37.558;126.950;2023-04-24T15:15:35;12.40;1.00
10864;DHT22;5485;37.558;126.950;2023-04-24T15:18:02;12.40;1.00
10864;DHT22;5485;37.558;126.950;2023-04-24T15:20:29;12.40;1.00
10864;DHT22;5485;37.558;126.950;2023-04-24T15:22:56;12.40;1.00
10864;DHT22;5485;37.558;126.950;2023-04-24T15:25:25;12.30;1.00
10864;DHT22;5485;37.558;126.950;2023-04-24T15:27:52;12.30;1.00
10864;DHT22;5485;37.558;126.950;2023-04-24T15:30:27;12.30;1.00
10864;DHT22;5485;37.558;126.950;2023-04-24T15:32:54;12.30;1.00
10864;DHT22;5485;37.558;126.950;2023-04-24T15:35:21;12.20;1.00
10864;DHT22;5485;37.558;126.950;2023-04-24T15:37:48;12.20;1.00
10864;DHT22;5485;37.558;126.950;2023-04-24T15:40:15;12.10;1.00
10864;DHT22;5485;37.558;126.950;2023-04-24T15:42:42;12.10;1.00
10864;DHT22;5485;37.558;126.950;2023-04-24T15:45:10;12.10;1.00
10864;DHT22;5485;37.558;126.950;2023-04-24T15:47:38;12.00;1.00